Caribe Navigator — V2PW6 — position and weather

sailwx.info

Track history (hours):
 
Tides and Currents Weather Stations Pressure Air Temp Water Temp Dewpoint Dewpoint Depression Visibility Wind Speed Wind Dir Waves Ship Positions

Caribe Navigator

Last reported at 2014-Dec-19 01:32 UTC. Time now 2014-Dec-19 08:43 UTC.
Position N 25°40' W 080°02'.

Length 100 m; draft 4.6 m.

Type: Cargo ship. MMSI: 305289000.

Date/timePositionNaut miles runAvg speedWind from/ knotsBaromVisibWave heightAir tempDewpointWater temp
2014-Dec-19 01:32N 25°40' W 080°02'1010.4
2014-Dec-19 00:33N 25°50' W 080°02'1010.2
2014-Dec-18 23:33N 26°00' W 080°04'6 6.2
2014-Dec-18 22:32N 26°05' W 080°07'0 0.0
2014-Dec-18 21:32N 26°05' W 080°07'0 0.0
2014-Dec-18 20:32N 26°05' W 080°07'0 0.0
2014-Dec-18 19:23N 26°05' W 080°07'0 0.0
2014-Dec-18 18:23N 26°05' W 080°07'0 0.0
2014-Dec-18 17:26N 26°05' W 080°07'0 0.0
2014-Dec-18 16:26N 26°05' W 080°07'0 0.0
2014-Dec-18 15:05N 26°05' W 080°07'0 0.0
2014-Dec-18 14:32N 26°05' W 080°07'0 0.0
2014-Dec-18 13:32N 26°05' W 080°07'0 0.0
2014-Dec-18 12:32N 26°05' W 080°07'0 0.0
2014-Dec-18 11:23N 26°05' W 080°07'0 0.0
2014-Dec-18 10:23N 26°05' W 080°07'0 0.0
2014-Dec-18 09:23N 26°05' W 080°07'0 0.0
2014-Dec-18 08:26N 26°05' W 080°07'0 0.0
2014-Dec-18 07:26N 26°05' W 080°07'0 0.0
2014-Dec-18 06:26N 26°05' W 080°07'0 0.0
2014-Dec-18 05:26N 26°05' W 080°07'0 0.0
2014-Dec-18 04:26N 26°05' W 080°07'0 0.0
2014-Dec-18 03:29N 26°05' W 080°07'0 0.0
2014-Dec-18 02:29N 26°05' W 080°07'0 0.0
2014-Dec-18 01:28N 26°05' W 080°07'0 0.0
2014-Dec-18 00:28N 26°05' W 080°07'0 0.0
2014-Dec-17 23:28N 26°05' W 080°07'0 0.0
2014-Dec-17 22:31N 26°05' W 080°07'0 0.1
2014-Dec-17 21:34N 26°05' W 080°07'10 9.9
2014-Dec-17 20:33N 25°56' W 080°03'1717.1
2014-Dec-17 19:33N 25°39' W 080°00'  
2014-Dec-12 01:17N 25°36' W 080°02'1014.1
2014-Dec-12 00:33N 25°46' W 080°03'1413.7
2014-Dec-11 23:33N 26°00' W 080°04'6 5.3
2014-Dec-11 22:25N 26°05' W 080°07'0 0.0
2014-Dec-11 21:28N 26°05' W 080°07'0 0.0
2014-Dec-11 20:28N 26°05' W 080°07'0 0.0
2014-Dec-11 19:28N 26°05' W 080°07'0 0.0
2014-Dec-11 18:28N 26°05' W 080°07'0 0.0
2014-Dec-11 17:28N 26°05' W 080°07'0 0.0
2014-Dec-11 16:31N 26°05' W 080°07'0 0.0
2014-Dec-11 15:31N 26°05' W 080°07'0 0.0
2014-Dec-11 14:31N 26°05' W 080°07'0 0.0
2014-Dec-11 13:31N 26°05' W 080°07'0 0.0
2014-Dec-11 12:31N 26°05' W 080°07'0 0.0
2014-Dec-11 11:31N 26°05' W 080°07'0 0.0
2014-Dec-11 10:31N 26°05' W 080°07'0 0.0
2014-Dec-11 09:31N 26°05' W 080°07'0 0.0
2014-Dec-11 08:31N 26°05' W 080°07'0 0.0
2014-Dec-11 07:31N 26°05' W 080°07'0 0.0
2014-Dec-11 06:31N 26°05' W 080°07'0 0.0
2014-Dec-11 05:31N 26°05' W 080°07'0 0.0
2014-Dec-11 04:22N 26°05' W 080°07'0 0.0
2014-Dec-11 03:22N 26°05' W 080°07'0 0.0
2014-Dec-11 02:22N 26°05' W 080°07'0 0.0
2014-Dec-11 01:25N 26°05' W 080°07'0 0.0
2014-Dec-11 00:25N 26°05' W 080°07'0 0.0
2014-Dec-10 23:25N 26°05' W 080°07'0 0.0
2014-Dec-10 22:25N 26°05' W 080°07'0 0.0
2014-Dec-10 21:33N 26°05' W 080°07'8 8.3
2014-Dec-10 20:33N 25°58' W 080°03'1413.5
2014-Dec-10 19:33N 25°45' W 080°01'  
Track history (hours):
 
Tides and Currents Weather Stations Pressure Air Temp Water Temp Dewpoint Dewpoint Depression Visibility Wind Speed Wind Dir Waves Ship Positions

Caribe Navigator

Last reported at 2014-Dec-19 01:32 UTC. Time now 2014-Dec-19 08:43 UTC.
Position N 25°40' W 080°02'.

Length 100 m; draft 4.6 m.

Type: Cargo ship. MMSI: 305289000.

Date/timePositionNaut miles runAvg speedWind from/ knotsBaromVisibWave heightAir tempDewpointWater temp
2014-Dec-19 01:32N 25°40' W 080°02'1010.4
2014-Dec-19 00:33N 25°50' W 080°02'1010.2
2014-Dec-18 23:33N 26°00' W 080°04'6 6.2
2014-Dec-18 22:32N 26°05' W 080°07'0 0.0
2014-Dec-18 21:32N 26°05' W 080°07'0 0.0
2014-Dec-18 20:32N 26°05' W 080°07'0 0.0
2014-Dec-18 19:23N 26°05' W 080°07'0 0.0
2014-Dec-18 18:23N 26°05' W 080°07'0 0.0
2014-Dec-18 17:26N 26°05' W 080°07'0 0.0
2014-Dec-18 16:26N 26°05' W 080°07'0 0.0
2014-Dec-18 15:05N 26°05' W 080°07'0 0.0
2014-Dec-18 14:32N 26°05' W 080°07'0 0.0
2014-Dec-18 13:32N 26°05' W 080°07'0 0.0
2014-Dec-18 12:32N 26°05' W 080°07'0 0.0
2014-Dec-18 11:23N 26°05' W 080°07'0 0.0
2014-Dec-18 10:23N 26°05' W 080°07'0 0.0
2014-Dec-18 09:23N 26°05' W 080°07'0 0.0
2014-Dec-18 08:26N 26°05' W 080°07'0 0.0
2014-Dec-18 07:26N 26°05' W 080°07'0 0.0
2014-Dec-18 06:26N 26°05' W 080°07'0 0.0
2014-Dec-18 05:26N 26°05' W 080°07'0 0.0
2014-Dec-18 04:26N 26°05' W 080°07'0 0.0
2014-Dec-18 03:29N 26°05' W 080°07'0 0.0
2014-Dec-18 02:29N 26°05' W 080°07'0 0.0
2014-Dec-18 01:28N 26°05' W 080°07'0 0.0
2014-Dec-18 00:28N 26°05' W 080°07'0 0.0
2014-Dec-17 23:28N 26°05' W 080°07'0 0.0
2014-Dec-17 22:31N 26°05' W 080°07'0 0.1
2014-Dec-17 21:34N 26°05' W 080°07'10 9.9
2014-Dec-17 20:33N 25°56' W 080°03'1717.1
2014-Dec-17 19:33N 25°39' W 080°00'  
2014-Dec-12 01:17N 25°36' W 080°02'1014.1
2014-Dec-12 00:33N 25°46' W 080°03'1413.7
2014-Dec-11 23:33N 26°00' W 080°04'6 5.3
2014-Dec-11 22:25N 26°05' W 080°07'0 0.0
2014-Dec-11 21:28N 26°05' W 080°07'0 0.0
2014-Dec-11 20:28N 26°05' W 080°07'0 0.0
2014-Dec-11 19:28N 26°05' W 080°07'0 0.0
2014-Dec-11 18:28N 26°05' W 080°07'0 0.0
2014-Dec-11 17:28N 26°05' W 080°07'0 0.0
2014-Dec-11 16:31N 26°05' W 080°07'0 0.0
2014-Dec-11 15:31N 26°05' W 080°07'0 0.0
2014-Dec-11 14:31N 26°05' W 080°07'0 0.0
2014-Dec-11 13:31N 26°05' W 080°07'0 0.0
2014-Dec-11 12:31N 26°05' W 080°07'0 0.0
2014-Dec-11 11:31N 26°05' W 080°07'0 0.0
2014-Dec-11 10:31N 26°05' W 080°07'0 0.0
2014-Dec-11 09:31N 26°05' W 080°07'0 0.0
2014-Dec-11 08:31N 26°05' W 080°07'0 0.0
2014-Dec-11 07:31N 26°05' W 080°07'0 0.0
2014-Dec-11 06:31N 26°05' W 080°07'0 0.0
2014-Dec-11 05:31N 26°05' W 080°07'0 0.0
2014-Dec-11 04:22N 26°05' W 080°07'0 0.0
2014-Dec-11 03:22N 26°05' W 080°07'0 0.0
2014-Dec-11 02:22N 26°05' W 080°07'0 0.0
2014-Dec-11 01:25N 26°05' W 080°07'0 0.0
2014-Dec-11 00:25N 26°05' W 080°07'0 0.0
2014-Dec-10 23:25N 26°05' W 080°07'0 0.0
2014-Dec-10 22:25N 26°05' W 080°07'0 0.0
2014-Dec-10 21:33N 26°05' W 080°07'8 8.3
2014-Dec-10 20:33N 25°58' W 080°03'1413.5
2014-Dec-10 19:33N 25°45' W 080°01'  

Dump ship's entire track history